createdAt,value
2019-05-12T00:01:53.128Z,5.60
2019-05-12T00:07:54.575Z,5.50
2019-05-12T00:13:58.407Z,5.30
2019-05-12T00:19:59.269Z,5.20
2019-05-12T00:26:00.754Z,5.00
2019-05-12T00:32:02.798Z,5.00
2019-05-12T00:38:04.467Z,5.10
2019-05-12T00:44:08.190Z,5.20
2019-05-12T00:50:09.697Z,5.10
2019-05-12T00:56:11.248Z,5.10
2019-05-12T01:02:44.145Z,5.10
2019-05-12T01:08:45.798Z,5.20
2019-05-12T01:14:48.659Z,5.30
2019-05-12T01:20:50.274Z,5.30
2019-05-12T01:26:51.728Z,5.40
2019-05-12T01:32:53.459Z,5.50
2019-05-12T01:38:55.219Z,5.30
2019-05-12T01:44:58.443Z,5.20
2019-05-12T01:51:00.047Z,5.10
2019-05-12T01:57:01.561Z,5.20
2019-05-12T02:03:03.178Z,5.30
2019-05-12T02:09:08.069Z,5.30
2019-05-12T02:15:09.982Z,5.10
2019-05-12T02:21:11.555Z,5.00
2019-05-12T02:27:13.143Z,4.90
2019-05-12T02:33:16.051Z,4.80
2019-05-12T02:39:17.654Z,4.90
2019-05-12T02:45:19.485Z,4.80
2019-05-12T02:51:24.611Z,4.80
2019-05-12T02:57:27.330Z,4.70
2019-05-12T03:03:30.203Z,4.70
2019-05-12T03:09:35.099Z,4.80
2019-05-12T03:15:37.035Z,4.60
2019-05-12T03:21:38.790Z,4.50
2019-05-12T03:27:40.348Z,4.50
2019-05-12T03:33:45.756Z,4.60
2019-05-12T03:39:45.731Z,4.60
2019-05-12T03:45:47.215Z,4.70
2019-05-12T03:51:48.884Z,4.70
2019-05-12T03:57:50.378Z,4.70
2019-05-12T04:03:54.185Z,4.80
2019-05-12T04:09:55.222Z,4.80
2019-05-12T04:15:56.659Z,4.80
2019-05-12T04:21:58.350Z,4.90
2019-05-12T04:27:59.781Z,5.10
2019-05-12T04:34:04.734Z,5.10
2019-05-12T04:40:05.644Z,5.30
2019-05-12T04:46:07.342Z,5.60
2019-05-12T04:52:08.811Z,6.00
2019-05-12T04:58:10.247Z,6.50
2019-05-12T05:04:11.948Z,7.10
2019-05-12T05:10:14.683Z,7.80
2019-05-12T05:16:16.308Z,7.60
2019-05-12T05:22:17.782Z,7.50
2019-05-12T05:28:19.222Z,7.80
2019-05-12T05:34:20.710Z,7.90
2019-05-12T05:40:26.005Z,8.60
2019-05-12T05:46:27.727Z,8.80
2019-05-12T05:52:33.334Z,9.20
2019-05-12T05:58:33.902Z,10.00
2019-05-12T06:04:39.262Z,10.20
2019-05-12T06:10:40.383Z,9.90
2019-05-12T06:16:43.355Z,10.70
2019-05-12T06:22:48.598Z,11.10
2019-05-12T06:28:48.232Z,10.50
2019-05-12T06:34:50.786Z,10.50
2019-05-12T06:40:56.217Z,10.00
2019-05-12T06:47:03.620Z,9.80
2019-05-12T06:53:01.101Z,10.10
2019-05-12T06:59:10.000Z,10.30
2019-05-12T07:05:06.568Z,10.70
2019-05-12T07:11:08.013Z,11.00
2019-05-12T07:17:20.259Z,10.70
2019-05-12T07:23:25.836Z,10.70
2019-05-12T07:29:24.993Z,10.70
2019-05-12T07:35:28.037Z,11.40
2019-05-12T07:41:30.997Z,11.50
2019-05-12T07:47:33.156Z,11.30
2019-05-12T07:53:34.743Z,10.90
2019-05-12T07:59:40.837Z,10.30
2019-05-12T08:05:39.686Z,10.70
2019-05-12T08:11:43.934Z,10.80
2019-05-12T08:17:49.249Z,10.10
2019-05-12T08:23:53.448Z,10.30
2019-05-12T08:30:00.924Z,11.30
2019-05-12T08:36:05.555Z,10.70
2019-05-12T08:42:04.028Z,11.00
2019-05-12T08:48:10.415Z,11.50
2019-05-12T08:54:10.379Z,11.20
2019-05-12T09:00:13.479Z,11.40
2019-05-12T09:06:19.482Z,12.10
2019-05-12T09:12:23.326Z,12.60
2019-05-12T09:18:33.511Z,11.70
2019-05-12T09:24:28.219Z,12.40
2019-05-12T09:30:29.868Z,12.50
2019-05-12T09:36:34.913Z,12.50
2019-05-12T09:42:36.500Z,12.30
2019-05-12T09:48:46.910Z,12.60
2019-05-12T09:54:44.450Z,12.70
2019-05-12T10:00:46.027Z,13.00
2019-05-12T10:06:53.342Z,12.70
2019-05-12T10:12:57.312Z,13.00
2019-05-12T10:19:03.956Z,13.70
2019-05-12T10:25:09.817Z,13.00
2019-05-12T10:31:13.860Z,12.90
2019-05-12T10:37:29.407Z,13.20
2019-05-12T10:43:30.051Z,13.60
2019-05-12T10:49:33.715Z,12.80
2019-05-12T10:55:35.513Z,13.50
2019-05-12T11:01:45.643Z,13.50
2019-05-12T11:07:43.599Z,13.80
2019-05-12T11:13:48.807Z,13.80
2019-05-12T11:19:51.380Z,14.10
2019-05-12T11:25:53.379Z,14.00
2019-05-12T11:31:55.023Z,14.00
2019-05-12T11:37:59.925Z,14.40
2019-05-12T11:44:03.830Z,14.50
2019-05-12T11:50:09.777Z,14.40
2019-05-12T11:56:13.858Z,14.70
2019-05-12T12:02:20.240Z,14.90
2019-05-12T12:08:20.839Z,15.50
2019-05-12T12:14:24.066Z,15.40
2019-05-12T12:20:25.896Z,15.60
2019-05-12T12:26:30.258Z,15.20
2019-05-12T12:32:30.597Z,16.10
2019-05-12T12:38:33.499Z,16.00
2019-05-12T12:44:36.082Z,16.50
2019-05-12T12:50:40.171Z,16.50
2019-05-12T12:56:41.687Z,16.40
2019-05-12T13:02:45.091Z,16.50
2019-05-12T13:08:46.442Z,15.90
2019-05-12T13:14:47.947Z,16.50
2019-05-12T13:20:49.511Z,16.50
2019-05-12T13:26:51.049Z,16.30
2019-05-12T13:32:52.525Z,16.80
2019-05-12T13:38:53.969Z,15.80
2019-05-12T13:44:55.468Z,16.00
2019-05-12T13:51:07.537Z,16.50
2019-05-12T13:57:03.801Z,16.70
2019-05-12T14:03:09.472Z,16.40
2019-05-12T14:09:07.155Z,16.80
2019-05-12T14:15:09.480Z,17.10
2019-05-12T14:21:14.055Z,17.30
2019-05-12T14:27:19.101Z,16.90
2019-05-12T14:33:19.587Z,17.00
2019-05-12T14:39:21.207Z,16.90
2019-05-12T14:45:27.197Z,16.90
2019-05-12T14:51:29.197Z,16.60
2019-05-12T14:57:37.295Z,15.90
2019-05-12T15:03:34.332Z,15.60
2019-05-12T15:10:08.251Z,15.70
2019-05-12T15:16:05.412Z,14.60
2019-05-12T15:22:11.802Z,14.20
2019-05-12T15:28:10.260Z,14.70
2019-05-12T15:34:13.702Z,15.60
2019-05-12T15:40:15.377Z,16.00
2019-05-12T15:46:16.862Z,15.60
2019-05-12T15:52:19.685Z,14.40
2019-05-12T15:58:21.445Z,13.90
2019-05-12T16:04:25.912Z,13.60
2019-05-12T16:10:27.399Z,13.70
2019-05-12T16:16:36.441Z,13.60
2019-05-12T16:22:37.246Z,13.60
2019-05-12T16:28:36.356Z,13.50
2019-05-12T16:34:44.864Z,13.00
2019-05-12T16:40:47.943Z,12.90
2019-05-12T16:46:47.796Z,12.90
2019-05-12T16:52:56.426Z,12.90
2019-05-12T16:58:57.865Z,12.90
2019-05-12T17:05:06.680Z,14.40
2019-05-12T17:11:23.238Z,15.90
2019-05-12T17:17:11.428Z,14.80
2019-05-12T17:23:13.895Z,14.00
2019-05-12T17:29:15.664Z,13.60
2019-05-12T17:35:20.202Z,13.80
2019-05-12T17:41:24.196Z,15.80
2019-05-12T17:47:26.517Z,18.00
2019-05-12T17:53:35.949Z,18.00
2019-05-12T17:59:35.559Z,17.90
2019-05-12T18:05:42.090Z,17.40
2019-05-12T18:11:40.804Z,16.90
2019-05-12T18:17:45.293Z,16.60
2019-05-12T18:23:46.733Z,14.50
2019-05-12T18:29:48.510Z,13.10
2019-05-12T18:35:50.228Z,12.40
2019-05-12T18:41:54.116Z,11.70
2019-05-12T18:48:01.160Z,11.30
2019-05-12T18:54:03.736Z,10.80
2019-05-12T19:00:10.438Z,10.50
2019-05-12T19:06:14.068Z,10.20
2019-05-12T19:12:22.519Z,10.00
2019-05-12T19:18:24.427Z,9.80
2019-05-12T19:24:26.625Z,9.50
2019-05-12T19:30:28.269Z,9.10
2019-05-12T19:36:29.966Z,8.80
2019-05-12T19:42:31.676Z,8.50
2019-05-12T19:48:43.019Z,8.20
2019-05-12T19:54:37.754Z,8.00
2019-05-12T20:00:39.259Z,7.60
2019-05-12T20:06:40.704Z,7.50
2019-05-12T20:12:43.613Z,7.50
2019-05-12T20:18:49.281Z,7.40
2019-05-12T20:24:55.185Z,7.30
2019-05-12T20:31:02.792Z,7.20
2019-05-12T20:37:07.597Z,7.00
2019-05-12T20:43:12.255Z,6.70
2019-05-12T20:49:14.929Z,6.70
2019-05-12T20:55:16.621Z,6.50
2019-05-12T21:01:20.328Z,6.50
2019-05-12T21:07:24.252Z,6.50
2019-05-12T21:13:27.241Z,6.50
2019-05-12T21:19:29.307Z,6.50
2019-05-12T21:25:33.757Z,6.40
2019-05-12T21:31:34.707Z,6.40
2019-05-12T21:37:44.565Z,6.20
2019-05-12T21:43:39.450Z,5.90
2019-05-12T21:49:42.752Z,5.70
2019-05-12T21:55:44.458Z,5.50
2019-05-12T22:01:46.298Z,5.40
2019-05-12T22:07:47.886Z,5.20
2019-05-12T22:13:58.174Z,5.10
2019-05-12T22:19:53.566Z,4.90
2019-05-12T22:25:59.900Z,4.70
2019-05-12T22:31:58.424Z,4.50
2019-05-12T22:37:59.898Z,4.40
2019-05-12T22:44:01.489Z,4.30
2019-05-12T22:50:04.292Z,4.20
2019-05-12T22:56:12.266Z,4.30
2019-05-12T23:02:10.245Z,4.20
2019-05-12T23:08:14.060Z,4.00
2019-05-12T23:14:20.984Z,3.80
2019-05-12T23:20:18.672Z,3.50
2019-05-12T23:26:24.571Z,3.40
2019-05-12T23:32:26.211Z,3.30
2019-05-12T23:38:27.902Z,3.00
2019-05-12T23:44:29.332Z,2.80
2019-05-12T23:50:30.936Z,2.80
2019-05-12T23:56:33.705Z,2.60
